createdAt,value
2017-11-16T00:01:05.601Z,14.27
2017-11-16T00:03:33.919Z,9.07
2017-11-16T00:06:02.170Z,9.37
2017-11-16T00:08:30.447Z,7.63
2017-11-16T00:10:58.716Z,8.27
2017-11-16T00:13:27.977Z,11.43
2017-11-16T00:15:56.238Z,9.00
2017-11-16T00:18:24.739Z,16.40
2017-11-16T00:20:53.024Z,7.37
2017-11-16T00:23:21.293Z,6.83
2017-11-16T00:25:50.404Z,11.20
2017-11-16T00:28:18.649Z,15.87
2017-11-16T00:30:46.919Z,8.50
2017-11-16T00:33:15.238Z,10.07
2017-11-16T00:35:43.516Z,15.50
2017-11-16T00:38:11.777Z,11.57
2017-11-16T00:40:40.053Z,16.93
2017-11-16T00:43:09.303Z,16.67
2017-11-16T00:45:37.560Z,16.07
2017-11-16T00:48:05.858Z,16.50
2017-11-16T00:50:34.102Z,11.00
2017-11-16T00:53:02.460Z,8.73
2017-11-16T00:55:30.681Z,7.53
2017-11-16T00:57:59.095Z,8.17
2017-11-16T01:00:27.368Z,6.47
2017-11-16T01:02:55.632Z,7.90
2017-11-16T01:05:23.912Z,8.43
2017-11-16T01:07:52.184Z,12.20
2017-11-16T01:10:20.487Z,8.10
2017-11-16T01:12:48.744Z,13.40
2017-11-16T01:15:17.040Z,6.50
2017-11-16T01:17:45.297Z,6.70
2017-11-16T01:20:13.614Z,9.77
2017-11-16T01:22:41.848Z,8.03
2017-11-16T01:25:10.120Z,11.50
2017-11-16T01:27:38.399Z,9.27
2017-11-16T01:30:06.665Z,9.90
2017-11-16T01:32:34.941Z,16.63
2017-11-16T01:35:03.273Z,9.40
2017-11-16T01:37:31.509Z,8.40
2017-11-16T01:40:02.911Z,7.90
2017-11-16T01:42:31.199Z,10.73
2017-11-16T01:44:59.482Z,7.63
2017-11-16T01:47:27.737Z,9.40
2017-11-16T01:49:55.985Z,7.70
2017-11-16T01:52:24.277Z,8.10
2017-11-16T01:54:52.602Z,9.43
2017-11-16T01:57:20.849Z,8.13
2017-11-16T01:59:49.143Z,15.13
2017-11-16T02:02:29.282Z,8.73
2017-11-16T02:04:57.565Z,10.37
2017-11-16T02:07:25.821Z,10.20
2017-11-16T02:09:54.091Z,9.50
2017-11-16T02:12:22.390Z,10.60
2017-11-16T02:14:50.674Z,9.70
2017-11-16T02:17:18.916Z,16.97
2017-11-16T02:19:47.194Z,12.63
2017-11-16T02:22:15.558Z,13.27
2017-11-16T02:24:43.811Z,10.77
2017-11-16T02:27:12.102Z,11.53
2017-11-16T02:29:40.340Z,13.90
2017-11-16T02:32:08.628Z,21.60
2017-11-16T02:34:36.889Z,20.60
2017-11-16T02:37:05.180Z,16.53
2017-11-16T02:39:33.457Z,17.90
2017-11-16T02:42:02.625Z,16.20
2017-11-16T02:44:30.890Z,20.90
2017-11-16T02:46:59.159Z,21.40
2017-11-16T02:49:27.440Z,22.20
2017-11-16T02:51:55.693Z,22.43
2017-11-16T02:54:23.985Z,24.33
2017-11-16T02:56:59.672Z,23.00
2017-11-16T02:59:29.152Z,27.57
2017-11-16T03:01:57.424Z,39.93
2017-11-16T03:04:25.716Z,33.53
2017-11-16T03:06:58.403Z,27.40
2017-11-16T03:09:26.700Z,34.30
2017-11-16T03:11:54.978Z,43.27
2017-11-16T03:14:23.266Z,29.27
2017-11-16T03:16:51.530Z,34.13
2017-11-16T03:19:19.843Z,31.87
2017-11-16T03:21:48.137Z,36.33
2017-11-16T03:24:16.427Z,37.77
2017-11-16T03:26:44.688Z,32.23
2017-11-16T03:29:12.954Z,30.93
2017-11-16T03:31:41.288Z,32.57
2017-11-16T03:34:09.549Z,31.87
2017-11-16T03:36:37.845Z,34.90
2017-11-16T03:39:06.116Z,34.93
2017-11-16T03:41:34.429Z,35.57
2017-11-16T03:44:02.706Z,38.27
2017-11-16T03:46:31.009Z,36.83
2017-11-16T03:48:59.261Z,38.30
2017-11-16T03:51:27.541Z,37.80
2017-11-16T03:53:55.819Z,39.80
2017-11-16T03:56:24.102Z,40.70
2017-11-16T03:58:52.397Z,47.53
2017-11-16T04:01:20.648Z,45.73
2017-11-16T04:03:48.933Z,44.57
2017-11-16T04:06:17.219Z,35.60
2017-11-16T04:08:45.561Z,38.63
2017-11-16T04:11:13.843Z,43.63
2017-11-16T04:13:42.114Z,40.13
2017-11-16T04:16:10.425Z,34.43
2017-11-16T04:18:38.660Z,34.60
2017-11-16T04:21:07.261Z,36.83
2017-11-16T04:23:35.544Z,33.50
2017-11-16T04:26:03.917Z,33.53
2017-11-16T04:28:32.209Z,37.30
2017-11-16T04:31:01.448Z,27.50
2017-11-16T04:33:29.756Z,35.37
2017-11-16T04:35:58.428Z,46.40
2017-11-16T04:38:26.705Z,31.13
2017-11-16T04:40:54.991Z,33.67
2017-11-16T04:43:23.284Z,32.77
2017-11-16T04:45:51.558Z,30.00
2017-11-16T04:48:19.852Z,27.30
2017-11-16T04:50:48.113Z,26.23
2017-11-16T04:53:16.425Z,24.43
2017-11-16T04:55:44.697Z,25.53
2017-11-16T04:58:13.009Z,27.63
2017-11-16T05:00:41.247Z,24.50
2017-11-16T05:03:09.629Z,28.93
2017-11-16T05:05:37.964Z,26.20
2017-11-16T05:08:06.301Z,28.87
2017-11-16T05:10:35.388Z,24.83
2017-11-16T05:13:03.673Z,22.80
2017-11-16T05:15:31.978Z,22.90
2017-11-16T05:18:00.242Z,17.17
2017-11-16T05:20:28.534Z,22.33
2017-11-16T05:22:56.821Z,20.10
2017-11-16T05:25:25.102Z,20.13
2017-11-16T05:27:53.371Z,17.87
2017-11-16T05:30:21.660Z,26.20
2017-11-16T05:32:49.947Z,20.20
2017-11-16T05:35:18.273Z,19.67
2017-11-16T05:37:46.565Z,28.63
2017-11-16T05:40:14.846Z,26.30
2017-11-16T05:42:43.141Z,24.37
2017-11-16T05:45:11.397Z,24.60
2017-11-16T05:47:39.684Z,38.63
2017-11-16T05:50:07.948Z,24.77
2017-11-16T05:52:36.223Z,21.53
2017-11-16T05:55:04.573Z,25.10
2017-11-16T05:57:32.854Z,22.50
2017-11-16T06:00:01.153Z,27.60
2017-11-16T06:02:29.405Z,22.27
2017-11-16T06:04:57.713Z,26.13
2017-11-16T06:07:25.970Z,24.27
2017-11-16T06:09:54.255Z,24.73
2017-11-16T06:12:22.528Z,24.07
2017-11-16T06:14:50.825Z,23.20
2017-11-16T06:17:19.296Z,23.00
2017-11-16T06:19:47.586Z,21.47
2017-11-16T06:22:15.844Z,23.87
2017-11-16T06:24:44.164Z,23.67
2017-11-16T06:27:12.407Z,20.27
2017-11-16T06:29:40.725Z,20.33
2017-11-16T06:32:09.005Z,26.40
2017-11-16T06:34:37.274Z,23.13
2017-11-16T06:37:05.612Z,22.03
2017-11-16T06:39:33.872Z,20.93
2017-11-16T06:42:02.160Z,16.40
2017-11-16T06:44:30.433Z,17.93
2017-11-16T06:46:58.710Z,18.10
2017-11-16T06:49:26.976Z,17.70
2017-11-16T06:51:55.251Z,21.30
2017-11-16T06:54:23.518Z,19.03
2017-11-16T06:56:51.828Z,18.40
2017-11-16T06:59:20.087Z,15.90
2017-11-16T07:01:48.371Z,24.10
2017-11-16T07:04:16.727Z,15.87
2017-11-16T07:06:44.981Z,11.67
2017-11-16T07:09:13.299Z,18.07
2017-11-16T07:11:41.620Z,19.33
2017-11-16T07:14:09.923Z,14.17
2017-11-16T07:16:38.250Z,15.57
2017-11-16T07:19:06.561Z,12.90
2017-11-16T07:21:34.851Z,11.87
2017-11-16T07:24:03.351Z,15.40
2017-11-16T07:26:31.643Z,17.00
2017-11-16T07:28:59.885Z,15.80
2017-11-16T07:31:28.202Z,18.23
2017-11-16T07:33:56.483Z,16.67
2017-11-16T07:36:24.822Z,15.90
2017-11-16T07:38:53.120Z,18.50
2017-11-16T07:41:21.406Z,13.17
2017-11-16T07:43:49.685Z,19.53
2017-11-16T07:46:17.951Z,15.93
2017-11-16T07:48:46.232Z,11.20
2017-11-16T07:51:14.544Z,12.73
2017-11-16T07:53:42.942Z,18.60
2017-11-16T07:56:11.218Z,18.67
2017-11-16T07:58:39.515Z,11.50
2017-11-16T08:01:07.768Z,16.10
2017-11-16T08:03:36.077Z,18.47
2017-11-16T08:06:04.419Z,14.47
2017-11-16T08:08:37.995Z,14.73
2017-11-16T08:11:07.046Z,12.20
2017-11-16T08:13:35.431Z,19.53
2017-11-16T08:16:03.802Z,13.47
2017-11-16T08:18:32.165Z,13.90
2017-11-16T08:21:00.400Z,15.10
2017-11-16T08:23:28.686Z,13.90
2017-11-16T08:25:57.022Z,21.97
2017-11-16T08:28:25.269Z,13.20
2017-11-16T08:30:53.622Z,13.83
2017-11-16T08:33:21.927Z,15.87
2017-11-16T08:35:51.079Z,16.07
2017-11-16T08:38:19.397Z,14.30
2017-11-16T08:40:48.323Z,16.30
2017-11-16T08:43:17.711Z,20.23
2017-11-16T08:45:46.710Z,16.40
2017-11-16T08:48:15.013Z,17.83
2017-11-16T08:50:43.326Z,15.60
2017-11-16T08:53:11.598Z,15.20
2017-11-16T08:55:39.910Z,18.27
2017-11-16T08:58:08.226Z,19.33
2017-11-16T09:00:36.489Z,17.97
2017-11-16T09:03:04.814Z,19.80
2017-11-16T09:05:33.070Z,18.73
2017-11-16T09:08:01.364Z,20.23
2017-11-16T09:10:29.641Z,17.53
2017-11-16T09:12:57.968Z,17.10
2017-11-16T09:15:27.548Z,23.67
2017-11-16T09:17:55.854Z,23.47
2017-11-16T09:20:24.203Z,20.90
2017-11-16T09:22:52.965Z,21.83
2017-11-16T09:25:21.246Z,21.03
2017-11-16T09:27:49.606Z,21.17
2017-11-16T09:30:17.875Z,17.43
2017-11-16T09:32:47.062Z,20.00
2017-11-16T09:35:15.425Z,21.00
2017-11-16T09:37:43.737Z,19.50
2017-11-16T09:40:12.085Z,22.57
2017-11-16T09:42:40.412Z,21.97
2017-11-16T09:45:08.703Z,21.13
2017-11-16T09:47:36.982Z,19.50
2017-11-16T09:50:05.242Z,20.63
2017-11-16T09:52:33.562Z,19.43
2017-11-16T09:55:01.819Z,26.63
2017-11-16T09:57:30.216Z,21.63
2017-11-16T09:59:58.501Z,22.73
2017-11-16T10:02:26.982Z,22.80
2017-11-16T10:04:55.261Z,19.13
2017-11-16T10:07:23.646Z,20.17
2017-11-16T10:09:53.248Z,19.70
2017-11-16T10:12:21.561Z,20.23
2017-11-16T10:14:49.851Z,20.17
2017-11-16T10:17:18.140Z,19.80
2017-11-16T10:19:46.933Z,20.10
2017-11-16T10:22:15.191Z,20.37
2017-11-16T10:24:43.481Z,18.20
2017-11-16T10:27:11.753Z,20.43
2017-11-16T10:29:40.047Z,19.17
2017-11-16T10:32:08.313Z,18.67
2017-11-16T10:34:36.659Z,20.63
2017-11-16T10:37:04.962Z,18.63
2017-11-16T10:39:34.140Z,21.47
2017-11-16T10:42:02.437Z,19.93
2017-11-16T10:44:30.716Z,13.93
2017-11-16T10:46:59.004Z,19.97
2017-11-16T10:49:28.298Z,20.47
2017-11-16T10:51:56.641Z,18.53
2017-11-16T10:54:24.987Z,18.93
2017-11-16T10:56:53.242Z,18.47
2017-11-16T10:59:21.606Z,21.50
2017-11-16T11:01:49.881Z,19.43
2017-11-16T11:04:18.217Z,29.47
2017-11-16T11:06:46.548Z,18.30
2017-11-16T11:09:14.806Z,18.47
2017-11-16T11:11:43.094Z,20.50
2017-11-16T11:14:11.391Z,17.70
2017-11-16T11:16:39.660Z,26.17
2017-11-16T11:19:07.978Z,16.83
2017-11-16T11:21:36.266Z,18.10
2017-11-16T11:24:04.597Z,14.30
2017-11-16T11:26:32.906Z,19.90
2017-11-16T11:29:01.219Z,16.80
2017-11-16T11:31:29.497Z,19.30
2017-11-16T11:33:57.774Z,16.83
2017-11-16T11:36:26.089Z,17.57
2017-11-16T11:38:54.439Z,17.30
2017-11-16T11:41:22.860Z,19.27
2017-11-16T11:43:51.621Z,20.47
2017-11-16T11:46:19.957Z,19.27
2017-11-16T11:48:48.312Z,18.60
2017-11-16T11:51:16.607Z,21.60
2017-11-16T11:53:44.879Z,21.83
2017-11-16T11:56:13.242Z,25.10
2017-11-16T11:58:41.513Z,22.40
2017-11-16T12:01:09.847Z,18.97
2017-11-16T12:03:38.249Z,23.70
2017-11-16T12:06:06.514Z,19.97
2017-11-16T12:08:34.846Z,18.10
2017-11-16T12:11:03.105Z,17.40
2017-11-16T12:13:33.198Z,23.93
2017-11-16T12:16:01.463Z,21.97
2017-11-16T12:18:29.733Z,21.63
2017-11-16T12:20:58.006Z,21.90
2017-11-16T12:23:26.325Z,21.03
2017-11-16T12:25:54.616Z,24.40
2017-11-16T12:28:23.036Z,21.50
2017-11-16T12:30:51.346Z,19.93
2017-11-16T12:33:19.712Z,20.60
2017-11-16T12:35:52.693Z,18.17
2017-11-16T12:38:20.974Z,19.30
2017-11-16T12:40:49.264Z,18.50
2017-11-16T12:43:17.594Z,20.40
2017-11-16T12:45:45.977Z,19.80
2017-11-16T12:48:14.297Z,20.07
2017-11-16T12:50:42.628Z,26.70
2017-11-16T12:53:10.910Z,18.70
2017-11-16T12:55:39.245Z,19.13
2017-11-16T12:58:07.584Z,15.70
2017-11-16T13:00:35.913Z,18.00
2017-11-16T13:03:04.208Z,18.40
2017-11-16T13:05:33.101Z,17.20
2017-11-16T13:08:01.343Z,15.53
2017-11-16T13:10:29.670Z,16.40
2017-11-16T13:12:57.958Z,17.83
2017-11-16T13:15:26.226Z,18.17
2017-11-16T13:17:54.509Z,16.00
2017-11-16T13:20:22.798Z,15.97
2017-11-16T13:22:51.082Z,14.87
2017-11-16T13:25:19.340Z,15.40
2017-11-16T13:27:47.643Z,13.20
2017-11-16T13:30:15.884Z,17.63
2017-11-16T13:32:44.232Z,18.73
2017-11-16T13:35:12.480Z,20.23
2017-11-16T13:37:40.766Z,15.67
2017-11-16T13:40:09.075Z,17.43
2017-11-16T13:42:37.393Z,16.13
2017-11-16T13:45:06.501Z,23.87
2017-11-16T13:47:36.101Z,20.80
2017-11-16T13:50:04.414Z,14.30
2017-11-16T13:52:32.749Z,14.27
2017-11-16T13:55:01.055Z,16.13
2017-11-16T13:57:29.328Z,17.50
2017-11-16T13:59:57.606Z,13.70
2017-11-16T14:02:25.874Z,19.47
2017-11-16T14:04:54.198Z,21.00
2017-11-16T14:07:22.483Z,15.63
2017-11-16T14:09:50.777Z,20.07
2017-11-16T14:12:19.074Z,18.07
2017-11-16T14:14:47.317Z,24.00
2017-11-16T14:17:15.609Z,18.67
2017-11-16T14:19:43.890Z,18.93
2017-11-16T14:22:12.180Z,26.30
2017-11-16T14:24:40.445Z,18.97
2017-11-16T14:27:08.769Z,20.83
2017-11-16T14:29:37.076Z,23.47
2017-11-16T14:32:05.420Z,18.90
2017-11-16T14:34:33.743Z,16.13
2017-11-16T14:37:02.158Z,17.53
2017-11-16T14:39:30.450Z,25.00
2017-11-16T14:41:58.745Z,25.17
2017-11-16T14:44:27.072Z,20.97
2017-11-16T14:46:56.514Z,27.53
2017-11-16T14:49:24.894Z,25.13
2017-11-16T14:51:53.212Z,19.47
2017-11-16T14:54:21.486Z,18.83
2017-11-16T14:56:49.750Z,24.37
2017-11-16T14:59:18.150Z,28.53
2017-11-16T15:01:46.428Z,20.67
2017-11-16T15:04:15.270Z,27.73
2017-11-16T15:06:43.541Z,24.00
2017-11-16T15:09:11.829Z,21.23
2017-11-16T15:11:40.115Z,24.60
2017-11-16T15:14:08.391Z,30.13
2017-11-16T15:16:36.769Z,24.40
2017-11-16T15:19:05.077Z,23.23
2017-11-16T15:21:33.370Z,24.40
2017-11-16T15:24:01.653Z,26.67
2017-11-16T15:26:29.956Z,22.43
2017-11-16T15:28:58.238Z,26.53
2017-11-16T15:31:27.432Z,24.20
2017-11-16T15:33:55.726Z,26.70
2017-11-16T15:36:24.013Z,25.57
2017-11-16T15:38:52.342Z,29.87
2017-11-16T15:41:20.756Z,28.50
2017-11-16T15:43:49.050Z,32.00
2017-11-16T15:46:17.317Z,25.43
2017-11-16T15:48:45.855Z,20.10
2017-11-16T15:51:14.151Z,25.00
2017-11-16T15:53:42.466Z,26.37
2017-11-16T15:56:10.713Z,20.33
2017-11-16T15:58:39.030Z,22.13
2017-11-16T16:01:07.652Z,24.00
2017-11-16T16:03:35.936Z,22.07
2017-11-16T16:06:04.247Z,17.07
2017-11-16T16:08:33.253Z,18.13
2017-11-16T16:11:01.609Z,17.50
2017-11-16T16:13:29.958Z,19.03
2017-11-16T16:15:58.228Z,16.10
2017-11-16T16:18:26.535Z,15.47
2017-11-16T16:20:54.795Z,16.77
2017-11-16T16:23:23.088Z,15.90
2017-11-16T16:25:51.364Z,15.60
2017-11-16T16:28:19.657Z,15.77
2017-11-16T16:30:48.897Z,13.93
2017-11-16T16:33:17.161Z,12.87
2017-11-16T16:35:45.443Z,14.13
2017-11-16T16:38:13.733Z,11.50
2017-11-16T16:40:42.039Z,11.43
2017-11-16T16:43:10.399Z,11.93
2017-11-16T16:45:38.781Z,11.33
2017-11-16T16:48:07.052Z,11.80
2017-11-16T16:50:36.306Z,11.13
2017-11-16T16:53:04.696Z,16.73
2017-11-16T16:55:32.960Z,20.77
2017-11-16T16:58:01.240Z,14.67
2017-11-16T17:00:29.544Z,15.73
2017-11-16T17:02:57.890Z,14.73
2017-11-16T17:05:26.236Z,14.37
2017-11-16T17:07:54.501Z,12.80
2017-11-16T17:10:22.795Z,16.37
2017-11-16T17:12:51.137Z,14.63
2017-11-16T17:15:19.443Z,12.77
2017-11-16T17:17:47.742Z,17.03
2017-11-16T17:20:16.088Z,15.00
2017-11-16T17:22:44.326Z,15.80
2017-11-16T17:25:12.633Z,16.90
2017-11-16T17:27:40.928Z,20.03
2017-11-16T17:30:09.268Z,21.50
2017-11-16T17:32:37.595Z,22.20
2017-11-16T17:35:06.738Z,23.67
2017-11-16T17:37:35.038Z,22.50
2017-11-16T17:40:04.141Z,27.07
2017-11-16T17:42:32.434Z,20.80
2017-11-16T17:45:00.718Z,27.83
2017-11-16T17:47:28.965Z,24.70
2017-11-16T17:49:57.251Z,23.57
2017-11-16T17:52:25.561Z,27.00
2017-11-16T17:54:53.829Z,28.43
2017-11-16T17:57:22.133Z,34.30
2017-11-16T17:59:50.453Z,36.87
2017-11-16T18:02:18.716Z,32.30
2017-11-16T18:04:47.008Z,27.33
2017-11-16T18:07:15.289Z,32.07
2017-11-16T18:09:43.563Z,27.07
2017-11-16T18:12:11.834Z,27.53
2017-11-16T18:14:40.418Z,26.57
2017-11-16T18:17:08.693Z,28.27
2017-11-16T18:19:36.980Z,32.97
2017-11-16T18:22:05.265Z,31.20
2017-11-16T18:24:33.544Z,33.00
2017-11-16T18:27:01.832Z,35.67
2017-11-16T18:29:30.758Z,31.63
2017-11-16T18:31:59.057Z,28.53
2017-11-16T18:34:27.683Z,30.07
2017-11-16T18:36:56.001Z,30.30
2017-11-16T18:39:24.278Z,29.70
2017-11-16T18:41:52.595Z,27.43
2017-11-16T18:44:20.873Z,30.07
2017-11-16T18:46:49.177Z,31.83
2017-11-16T18:49:17.431Z,32.67
2017-11-16T18:51:45.741Z,30.17
2017-11-16T18:54:14.052Z,33.03
2017-11-16T18:56:42.300Z,29.93
2017-11-16T18:59:10.603Z,29.07
2017-11-16T19:01:38.865Z,32.30
2017-11-16T19:04:07.134Z,32.67
2017-11-16T19:06:35.533Z,30.77
2017-11-16T19:09:03.840Z,31.67
2017-11-16T19:11:32.119Z,30.73
2017-11-16T19:14:01.021Z,33.77
2017-11-16T19:16:29.285Z,28.97
2017-11-16T19:18:57.801Z,31.83
2017-11-16T19:21:26.065Z,32.03
2017-11-16T19:23:54.363Z,28.47
2017-11-16T19:26:22.666Z,30.40
2017-11-16T19:28:51.238Z,29.53
2017-11-16T19:31:19.541Z,28.37
2017-11-16T19:33:47.871Z,29.57
2017-11-16T19:36:16.181Z,30.10
2017-11-16T19:38:44.429Z,29.10
2017-11-16T19:41:12.731Z,32.57
2017-11-16T19:43:41.033Z,31.60
2017-11-16T19:46:10.339Z,31.27
2017-11-16T19:48:38.925Z,31.27
2017-11-16T19:51:07.254Z,29.57
2017-11-16T19:53:35.588Z,33.27
2017-11-16T19:56:03.893Z,36.50
2017-11-16T19:58:32.178Z,31.67
2017-11-16T20:01:00.520Z,36.50
2017-11-16T20:03:28.814Z,29.33
2017-11-16T20:05:57.105Z,38.10
2017-11-16T20:08:25.406Z,30.73
2017-11-16T20:10:53.690Z,39.73
2017-11-16T20:13:22.894Z,36.03
2017-11-16T20:15:51.228Z,33.77
2017-11-16T20:18:20.165Z,34.47
2017-11-16T20:20:48.465Z,31.03
2017-11-16T20:23:16.729Z,33.00
2017-11-16T20:25:45.047Z,30.00
2017-11-16T20:28:13.313Z,32.47
2017-11-16T20:30:41.655Z,33.83
2017-11-16T20:33:09.924Z,32.67
2017-11-16T20:35:38.210Z,31.57
2017-11-16T20:38:16.388Z,47.47
2017-11-16T20:44:06.280Z,30.47
2017-11-16T20:46:54.234Z,37.53
2017-11-16T20:49:28.105Z,42.80
2017-11-16T20:51:57.733Z,33.93
2017-11-16T20:54:28.499Z,34.80
2017-11-16T20:56:56.848Z,35.57
2017-11-16T20:59:25.107Z,33.20
2017-11-16T21:01:53.388Z,35.60
2017-11-16T21:04:21.652Z,37.43
2017-11-16T21:06:49.960Z,35.83
2017-11-16T21:09:18.214Z,31.30
2017-11-16T21:11:46.544Z,36.40
2017-11-16T21:14:14.805Z,36.60
2017-11-16T21:16:43.105Z,39.60
2017-11-16T21:19:11.393Z,35.43
2017-11-16T21:21:39.657Z,37.43
2017-11-16T21:24:07.986Z,32.53
2017-11-16T21:26:36.256Z,36.90
2017-11-16T21:29:04.558Z,39.33
2017-11-16T21:31:32.806Z,42.63
2017-11-16T21:34:01.111Z,36.23
2017-11-16T21:36:29.392Z,38.53
2017-11-16T21:38:57.725Z,34.80
2017-11-16T21:41:26.006Z,39.13
2017-11-16T21:43:54.313Z,40.80
2017-11-16T21:46:22.636Z,38.90
2017-11-16T21:48:51.927Z,41.17
2017-11-16T21:51:20.489Z,37.97
2017-11-16T21:53:48.823Z,34.23
2017-11-16T21:56:17.120Z,35.10
2017-11-16T21:58:45.404Z,35.80
2017-11-16T22:01:13.784Z,35.00
2017-11-16T22:03:42.066Z,37.00
2017-11-16T22:06:10.409Z,42.93
2017-11-16T22:08:40.006Z,40.77
2017-11-16T22:11:08.583Z,40.03
2017-11-16T22:13:36.914Z,37.37
2017-11-16T22:16:05.209Z,51.57
2017-11-16T22:18:33.536Z,41.20
2017-11-16T22:21:01.877Z,33.83
2017-11-16T22:23:30.144Z,43.47
2017-11-16T22:25:58.482Z,36.20
2017-11-16T22:28:26.763Z,40.90
2017-11-16T22:30:55.077Z,42.80
2017-11-16T22:33:23.297Z,45.37
2017-11-16T22:35:51.693Z,43.20
2017-11-16T22:38:20.032Z,38.87
2017-11-16T22:40:48.287Z,39.10
2017-11-16T22:43:16.593Z,40.57
2017-11-16T22:45:44.906Z,45.77
2017-11-16T22:48:13.207Z,46.97
2017-11-16T22:50:41.505Z,44.70
2017-11-16T22:53:09.781Z,41.43
2017-11-16T22:55:38.075Z,41.70
2017-11-16T22:58:06.334Z,38.37
2017-11-16T23:00:34.678Z,39.70
2017-11-16T23:03:02.931Z,38.27
2017-11-16T23:05:31.241Z,42.90
2017-11-16T23:07:59.506Z,36.93
2017-11-16T23:10:27.854Z,37.60
2017-11-16T23:12:56.132Z,39.83
2017-11-16T23:15:24.452Z,37.70
2017-11-16T23:17:52.745Z,38.70
2017-11-16T23:20:21.000Z,39.60
2017-11-16T23:22:49.420Z,36.93
2017-11-16T23:25:17.869Z,35.00
2017-11-16T23:27:46.204Z,33.30
2017-11-16T23:30:14.456Z,36.40
2017-11-16T23:32:42.761Z,33.77
2017-11-16T23:35:11.039Z,33.83
2017-11-16T23:37:39.641Z,33.40
2017-11-16T23:40:07.906Z,35.90
2017-11-16T23:42:36.509Z,31.90
2017-11-16T23:45:04.765Z,28.13
2017-11-16T23:47:33.145Z,30.20
2017-11-16T23:50:01.417Z,28.83
2017-11-16T23:52:29.681Z,31.53
2017-11-16T23:54:57.992Z,28.67
2017-11-16T23:57:26.422Z,27.17
2017-11-16T23:59:54.708Z,22.90
